x

New London Ledge Ct - Ledge Light Weather Station (ldlc3) Weather Station

7:45 - Tue 21st Oct 2014 All times are EDT. -4 hours from GMT.

  • Wind
    10mph, 13mph gusts
  • Luft Temp 61°f
  • Sea Pressure 1011.4mb
  • New London Ledge Ct - Ledge Light Weather Station
  • New London Ledge Ct - Ledge Light Weather Station

More Historic Weather Station data

Upgrade to MSW Pro to gain access to the past 30 days of data for over 8000 Wavebouys and Weather Stations around the globe.

Join Pro

Comparision Forecast

View Surf forecast
   
Di 10/21 7:45 10 13 mph 1011.4mb 61f
7:30 10 13 mph 1011.4mb 61f
7:15 9 11 mph 1011.1mb 62f
7:00 7 9 mph 1011.3mb 62f
6:45 7 8 mph 1011mb 62f
6:30 6 7 mph 1011.1mb 62f
6:15 7
mph
1010.8mb 62f
6:00 6 7 mph 1010.7mb 63f
5:45 6
mph
1010.9mb 63f
5:30 5 6 mph 1010.9mb 63f
5:15 6 7 mph 1010.7mb 63f
5:00 6 7 mph 1010.9mb 63f
4:45 6
mph
1011mb 63f
4:30 8 9 mph 1010.8mb 63f
4:15 8 9 mph 1010.8mb 64f
4:00 9 10 mph 1010.7mb 64f
3:45 8 9 mph 1010.7mb 64f
3:30 5
mph
1010.8mb 65f
3:15 3 5 mph 1010.8mb 65f
3:00 2
mph
1010.8mb 65f
2:45 2 3 mph 1010.9mb 66f
2:30 3 5 mph 1010.9mb 65f
2:15 5 6 mph 1011.1mb 65f
2:00 5 6 mph 1011.2mb 65f
1:45 3 5 mph 1011.3mb 65f
1:30 5 6 mph 1011.7mb 64f
1:15 5
mph
1011.8mb 64f
1:00 6
mph
1011.8mb 64f
12:45 3 5 mph 1011.9mb 66f
12:30 2
mph
1012mb 66f
12:15 2
mph
1012.2mb 66f
12:00 2 3 mph 1012.5mb 64f
11:45 5 6 mph 1012.5mb 63f
11:30 2 3 mph 1012.5mb 62f
11:15 2 3 mph 1012.6mb 61f
11:00 7 8 mph 1012.5mb 59f
10:45 7 8 mph 1012.6mb 58f
10:30 8 9 mph 1012.6mb 57f
10:15 10 13 mph 1012.6mb 56f
10:00 6 8 mph 1012.9mb 56f
9:45 9 10 mph 1013mb 55f
9:30 9 11 mph 1013mb 55f
9:15 9 11 mph 1013.2mb 54f
9:00 10 11 mph 1013mb 54f
8:45 10 11 mph 1013.1mb 53f
8:30 10 11 mph 1013.1mb 53f
8:15 9 10 mph 1013.2mb 53f
8:00 9 11 mph 1013.3mb 53f
7:45 9 10 mph 1013.2mb 52f
7:30 7 9 mph 1013mb 53f
7:15 8 9 mph 1013mb 53f
7:00 10 13 mph 1012.8mb 52f
6:45 11 13 mph 1012.5mb 51f
6:30 13 14 mph 1012.5mb 52f
6:15 11 13 mph 1012.4mb 52f
6:00 11 13 mph 1012.7mb 52f
5:45 11 13 mph 1012.7mb 52f
5:30 11 14 mph 1012.7mb 53f
5:15 11 14 mph 1012.6mb 52f
5:00 10 13 mph 1012.9mb 53f
4:45 7 8 mph 1013mb 53f
4:30 7 8 mph 1013.4mb 53f
4:15 13 14 mph 1013.1mb 52f
4:00 13 14 mph 1013.3mb 53f
3:45 8 9 mph 1013.5mb 53f
3:30 9 11 mph 1013.5mb 53f
3:15 9 10 mph 1013.5mb 54f
3:00 8 10 mph 1013.6mb 56f
2:45 10 13 mph 1013.7mb 61f
2:30 14 16 mph 1013.9mb 62f
2:15 16 17 mph 1013.9mb 61f
2:00 16 17 mph 1014.1mb 61f
1:45 15 17 mph 1014.1mb 61f
1:30 13 16 mph 1014.4mb 61f
1:15 13 16 mph 1014.5mb 61f
1:00 10 13 mph 1014.6mb 61f
Mo 10/20 7:45 21 24 mph 1014.9mb 58f
7:30 22 26 mph 1015mb 58f
7:15 22 25 mph 1014.8mb 58f
7:00 22 26 mph 1014.7mb 58f
6:45 20 22 mph 1014.7mb 57f
6:30 20 24 mph 1014.9mb 57f
6:15 23 30 mph 1014.6mb 57f
6:00 23 26 mph 1014.6mb 57f
5:45 23 26 mph 1014.6mb 57f
5:30 22 25 mph 1014.5mb 57f
5:15 21 25 mph 1014.8mb 56f
5:00 20 23 mph 1014.7mb 56f
4:45 18 21 mph 1015.1mb 56f
4:30 16 21 mph 1015.3mb 56f
4:15 15 20 mph 1015.3mb 55f
4:00 17 21 mph 1015.4mb 55f
3:45 20 23 mph 1015.4mb 55f
3:30 21 23 mph 1015.5mb 55f
3:15 20 24 mph 1015.4mb 54f
3:00 22 25 mph 1015.7mb 55f
2:45 21 25 mph 1015.8mb 55f
2:30 23 26 mph 1015.7mb 54f
2:15 24 29 mph 1015.5mb 53f
2:00 23 29 mph 1015.8mb 53f
1:45 23 28 mph 1016.1mb 52f
1:30 22 26 mph 1016.3mb 52f
1:15 21 26 mph 1016.2mb 51f
1:00 17 22 mph 1016.5mb 51f
12:45 18 23 mph 1016.7mb 51f
12:30 21 23 mph 1017.1mb 52f
12:15 20 23 mph 1017.2mb 52f
12:00 17 22 mph 1017.6mb 52f
11:45 16 21 mph 1017.8mb 51f
11:30 14 18 mph 1017.9mb 51f
11:15 13 17 mph 1018.1mb 51f
11:00 15 18 mph 1018.4mb 50f
10:45 14 20 mph 1018.5mb 50f
10:30 14 17 mph 1018.6mb 49f
10:15 14 16 mph 1018.6mb 49f
10:00 14 17 mph 1018.6mb 48f
9:45 13 16 mph 1018.6mb 47f
9:30 11 15 mph 1018.6mb 47f
9:15 11 13 mph 1018.5mb 46f
9:00 11 15 mph 1018.6mb 45f
8:45 11 14 mph 1018.6mb 44f
8:30 13 15 mph 1018.4mb 43f
8:15 11 15 mph 1018.2mb 42f
8:00 11 14 mph 1018mb 42f
7:45 13 15 mph 1017.9mb 41f
7:30 13 15 mph 1017.8mb 41f
7:15 11 13 mph 1017.6mb 40f
7:00 11 13 mph 1017.6mb 40f
6:45 10 11 mph 1017.7mb 41f
6:30 10 11 mph 1017.6mb 41f
6:15 11 14 mph 1017.4mb 41f
6:00 10 13 mph 1017.5mb 40f
5:45 10 13 mph 1017.5mb 40f
5:30 10 11 mph 1017.4mb 41f
5:15 11 13 mph 1017mb 41f
5:00 10 13 mph 1016.9mb 41f
4:45 11 13 mph 1016.9mb 42f
4:30 10 13 mph 1016.9mb 41f
4:15 11 14 mph 1016.8mb 41f
4:00 9 11 mph 1016.6mb 41f
3:45 10 11 mph 1016.5mb 41f
3:30 9 10 mph 1016.4mb 41f
3:15 8 9 mph 1016.3mb 41f
3:00 10 13 mph 1016.3mb 41f
2:45 11 14 mph 1016.3mb 41f
2:30 11 14 mph 1016.4mb 41f
2:15 11 14 mph 1016.1mb 41f
2:00 11 14 mph 1016mb 41f
1:45 14 16 mph 1015.7mb 42f
1:30 14 17 mph 1015.8mb 42f
1:15 11 14 mph 1015.7mb 42f
1:00 13 16 mph 1015.8mb 42f
So 10/19 7:45 21 25 mph 1013.3mb 47f
7:30 17 22 mph 1013.3mb 47f
7:15 18 24 mph 1013.1mb 48f
7:00 22 29 mph 1012.5mb 49f
6:45 17 21 mph 1012.4mb 49f
6:30 18 25 mph 1012.1mb 49f
6:15 18 25 mph 1011.7mb 50f
6:00 20 24 mph 1011.5mb 50f
5:45 17 24 mph 1011.4mb 51f
5:30 18 24 mph 1011.2mb 52f
5:15 23 29 mph 1010.8mb 52f
5:00 20 28 mph 1010.6mb 52f
4:45 21 26 mph 1010.3mb 52f
4:30 22 28 mph 1010.1mb 52f
4:15 22 29 mph 1009.9mb 52f
4:00 23 30 mph 1009.7mb 53f
3:45 25 31 mph 1009.5mb 53f
3:30 23 31 mph 1009.5mb 54f
3:15 24 32 mph 1009.2mb 53f
3:00 24 31 mph 1008.9mb 53f
2:45 21 25 mph 1009mb 53f
2:30 25 31 mph 1008.7mb 54f
2:15 18 22 mph 1008.7mb 55f
2:00 17 23 mph 1008.6mb 54f
1:45 22 29 mph 1008.3mb 54f
1:30 20 25 mph 1008.3mb 53f
1:15 23 32 mph 1008.1mb 54f
1:00 22 26 mph 1008.1mb 54f
12:45 29 34 mph 1007.7mb 54f
12:30 29 36 mph 1007.6mb 53f
12:15 28 34 mph 1007.8mb 54f
12:00 22 29 mph 1008.1mb 54f
11:45 25 31 mph 1008.3mb 54f
11:30 21 25 mph 1008.8mb 54f
11:15 23 29 mph 1008.8mb 53f
11:00 25 30 mph 1008.6mb 53f
10:45 29 37 mph 1008.4mb 52f
10:30 23 29 mph 1008.3mb 52f
10:15 24 30 mph 1008.1mb 51f
10:00 21 25 mph 1008.4mb 51f
9:45 21 24 mph 1008.5mb 51f
9:30 22 26 mph 1008.4mb 51f
9:15 22 28 mph 1008.3mb 52f
9:00 21 28 mph 1008.2mb 52f
8:45 16 21 mph 1008.2mb 52f
8:30 18 22 mph 1007.9mb 52f
8:15 18 24 mph 1007.7mb 52f
8:00 22 26 mph 1007.3mb 52f
7:45 20 24 mph 1007.1mb 52f
7:30 21 25 mph 1007mb 52f
7:15 17 21 mph 1006.8mb 53f
7:00 17 21 mph 1006.7mb 53f
6:45 17 21 mph 1006.4mb 53f
6:30 18 25 mph 1006.3mb 53f
6:15 14 17 mph 1006.2mb 54f
6:00 17 21 mph 1005.7mb 54f
5:45 20 23 mph 1005.3mb 54f
5:30 20 26 mph 1005.6mb 54f
5:15 17 21 mph 1005.5mb 55f
5:00 16 22 mph - 55f
4:45 20 23 mph - 55f
4:30 20 25 mph - 55f
4:15 20 24 mph - 56f
4:00 15 22 mph - 56f
3:45 14 18 mph - 56f
3:30 11 14 mph - 56f
3:15 11 15 mph - 56f
3:00 10 14 mph - 57f
2:45 10 11 mph - 57f
2:30 13 17 mph - 57f
2:15 10 15 mph - 57f
2:00 16 18 mph - 57f
1:45 15 18 mph - 58f
1:30 14 17 mph - 58f